Thule Air Base, Greenland
Current Conditions -  °F | °C
As of 2:58 PM on Tuesday 21 Oct 2014 (Local Time) from BGTL Reporting Station
Overcast Overcast  
Wind Chill:   Ceiling: 6000
Heat Index: 15°   Visibility: 6mi
Dew Point:   Wind: 9mph
Humidity: 76%   Direction: 120°ESE
Pressure: 29.67"   Gusts: NA
Location:  76.53°N, 68.7°W
Report Text: BGTL 211758Z AUTO 12008KT 9999 FEW048 OVC060 M09/M13 A2967 RMK AO2 SLP035 T10951131 11095 21122 57017 $
Loading
Personal Weather Stations






























Interactive Weather Map
Tropical Storm Tracking
New forecast layout! Learn more

10-Day Weather Forecast

Advertisements
Track Severe Weather on mobile